KLGC

Lagrange-Callaway Airport

Lagrange, Georgia, USA
METAR KLGC 150315Z AUTO 00000KT 7SM CLR 24/24 A3008 RMK AO2 T02430240
Observed Flight Rules
Aug-15 @ 03:15 UTC (20 minutes ago) Visual Flight Rules
Visibility Clouds
7 miles
  • Clear skies
Temperatures Readings
Current 24°C / 75°F
Dewpoint 24°C / 75°F
Humidity 100%
Altimeter 30.08" Hg
Pressure 1019 hPa
Elevation 211
METAR KLGC 150315Z AUTO 00000KT 7SM CLR 24/24 A3008 RMK AO2 T02430240
Observed Flight Rules
Aug-15 @ 03:15 UTC
(20 minutes ago)
VFR
Clouds
  • Clear skies
Temperature Dewpoint
24°C / 75°F 24°C / 75°F
Humidity Altimeter Pressure
100% 30.08" Hg 1019 hPa